createdAt,value
2022-11-23T00:01:13.704Z,7.96
2022-11-23T00:03:41.352Z,7.91
2022-11-23T00:06:11.054Z,8.01
2022-11-23T00:08:38.930Z,7.93
2022-11-23T00:11:07.121Z,7.93
2022-11-23T00:13:37.109Z,7.93
2022-11-23T00:16:10.599Z,7.97
2022-11-23T00:18:39.641Z,8.04
2022-11-23T00:21:13.157Z,8.02
2022-11-23T00:23:42.938Z,7.98
2022-11-23T00:26:11.204Z,7.91
2022-11-23T00:28:42.009Z,7.89
2022-11-23T00:31:13.975Z,7.86
2022-11-23T00:33:42.131Z,7.88
2022-11-23T00:36:12.635Z,7.97
2022-11-23T00:38:40.730Z,7.97
2022-11-23T00:41:10.300Z,8.00
2022-11-23T00:43:38.104Z,8.01
2022-11-23T00:46:07.794Z,8.03
2022-11-23T00:48:37.546Z,8.08
2022-11-23T00:51:07.294Z,8.03
2022-11-23T00:53:35.486Z,8.05
2022-11-23T00:56:03.279Z,8.06
2022-11-23T00:58:31.412Z,8.02
2022-11-23T01:01:04.169Z,7.99
2022-11-23T01:03:32.214Z,7.97
2022-11-23T01:06:08.861Z,8.01
2022-11-23T01:08:36.809Z,7.97
2022-11-23T01:11:07.147Z,8.00
2022-11-23T01:13:34.921Z,8.04
2022-11-23T01:16:02.898Z,8.09
2022-11-23T01:18:30.737Z,7.99
2022-11-23T01:20:58.726Z,8.02
2022-11-23T01:23:29.647Z,8.11
2022-11-23T01:25:57.415Z,8.13
2022-11-23T01:28:25.776Z,8.18
2022-11-23T01:30:53.433Z,8.22
2022-11-23T01:33:21.145Z,8.23
2022-11-23T01:35:48.835Z,8.19
2022-11-23T01:38:18.342Z,8.19
2022-11-23T01:40:47.695Z,8.20
2022-11-23T01:43:16.979Z,8.21
2022-11-23T01:45:46.359Z,8.21
2022-11-23T01:48:18.524Z,8.18
2022-11-23T01:50:49.860Z,8.21
2022-11-23T01:53:17.972Z,8.17
2022-11-23T01:55:48.430Z,8.20
2022-11-23T01:58:19.722Z,8.21
2022-11-23T02:00:47.752Z,8.22
2022-11-23T02:03:15.688Z,8.23
2022-11-23T02:05:48.029Z,8.22
2022-11-23T02:08:17.961Z,8.20
2022-11-23T02:10:48.403Z,8.19
2022-11-23T02:13:21.054Z,8.16
2022-11-23T02:15:48.739Z,8.12
2022-11-23T02:18:20.407Z,8.16
2022-11-23T02:20:49.164Z,8.16
2022-11-23T02:23:29.271Z,8.22
2022-11-23T02:26:03.332Z,8.19
2022-11-23T02:28:37.478Z,8.24
2022-11-23T02:31:05.184Z,8.24
2022-11-23T02:33:32.808Z,8.32
2022-11-23T02:36:02.180Z,8.33
2022-11-23T02:38:33.225Z,8.29
2022-11-23T02:41:02.217Z,8.28
2022-11-23T02:43:29.882Z,8.29
2022-11-23T02:46:00.045Z,8.25
2022-11-23T02:48:27.767Z,8.25
2022-11-23T02:50:55.439Z,8.27
2022-11-23T02:53:23.211Z,8.30
2022-11-23T02:55:50.902Z,8.23
2022-11-23T02:58:19.935Z,8.19
2022-11-23T03:00:47.799Z,8.22
2022-11-23T03:03:15.659Z,8.23
2022-11-23T03:05:43.306Z,8.30
2022-11-23T03:08:11.043Z,8.26
2022-11-23T03:10:38.701Z,8.36
2022-11-23T03:13:06.393Z,8.33
2022-11-23T03:15:35.431Z,8.31
2022-11-23T03:18:03.065Z,8.37
2022-11-23T03:20:30.726Z,8.36
2022-11-23T03:22:58.557Z,8.31
2022-11-23T03:25:26.264Z,8.32
2022-11-23T03:27:53.919Z,8.36
2022-11-23T03:30:21.791Z,8.38
2022-11-23T03:32:50.779Z,8.36
2022-11-23T03:35:18.639Z,8.41
2022-11-23T03:37:46.333Z,8.40
2022-11-23T03:40:14.564Z,8.48
2022-11-23T03:42:42.652Z,8.45
2022-11-23T03:45:11.157Z,8.45
2022-11-23T03:47:39.027Z,8.47
2022-11-23T03:50:09.299Z,8.38
2022-11-23T03:52:37.025Z,8.33
2022-11-23T03:55:05.511Z,8.33
2022-11-23T03:57:33.170Z,8.36
2022-11-23T04:00:00.901Z,8.37
2022-11-23T04:02:28.523Z,8.35
2022-11-23T04:04:56.232Z,8.38
2022-11-23T04:07:25.321Z,8.40
2022-11-23T04:09:53.009Z,8.40
2022-11-23T04:12:20.725Z,8.39
2022-11-23T04:14:48.334Z,8.40
2022-11-23T04:17:16.001Z,8.44
2022-11-23T04:19:43.687Z,8.39
2022-11-23T04:22:11.571Z,8.39
2022-11-23T04:24:40.586Z,8.41
2022-11-23T04:27:08.273Z,8.46
2022-11-23T04:29:36.323Z,8.48
2022-11-23T04:32:06.854Z,8.51
2022-11-23T04:34:34.506Z,8.52
2022-11-23T04:37:02.157Z,8.55
2022-11-23T04:39:30.027Z,8.53
2022-11-23T04:41:59.384Z,8.48
2022-11-23T04:44:27.106Z,8.45
2022-11-23T04:46:54.810Z,8.41
2022-11-23T04:49:22.515Z,8.38
2022-11-23T04:51:50.191Z,8.45
2022-11-23T04:54:17.827Z,8.45
2022-11-23T04:56:45.550Z,8.45
2022-11-23T04:59:20.138Z,8.43
2022-11-23T05:01:47.804Z,8.45
2022-11-23T05:04:17.891Z,8.46
2022-11-23T05:06:45.866Z,8.43
2022-11-23T05:09:13.874Z,8.46
2022-11-23T05:11:44.802Z,8.48
2022-11-23T05:14:12.572Z,8.49
2022-11-23T05:16:41.612Z,8.45
2022-11-23T05:19:12.351Z,8.45
2022-11-23T05:21:39.981Z,8.50
2022-11-23T05:24:10.234Z,8.52
2022-11-23T05:26:37.940Z,8.50
2022-11-23T05:29:05.560Z,8.49
2022-11-23T05:31:33.669Z,8.51
2022-11-23T05:34:04.732Z,8.51
2022-11-23T05:36:32.648Z,8.50
2022-11-23T05:39:00.321Z,8.51
2022-11-23T05:41:28.026Z,8.57
2022-11-23T05:43:55.730Z,8.53
2022-11-23T05:46:23.374Z,8.56
2022-11-23T05:48:51.139Z,8.56
2022-11-23T05:51:20.302Z,8.55
2022-11-23T05:53:48.312Z,8.48
2022-11-23T05:56:15.999Z,8.47
2022-11-23T05:58:43.633Z,8.44
2022-11-23T06:01:11.349Z,8.47
2022-11-23T06:03:39.115Z,8.41
2022-11-23T06:06:07.514Z,8.44
2022-11-23T06:08:36.571Z,8.49
2022-11-23T06:11:04.468Z,8.47
2022-11-23T06:13:32.100Z,8.51
2022-11-23T06:15:59.853Z,8.53
2022-11-23T06:18:27.590Z,8.50
2022-11-23T06:20:55.215Z,8.42
2022-11-23T06:23:22.845Z,8.42
2022-11-23T06:25:51.842Z,8.48
2022-11-23T06:28:19.583Z,8.49
2022-11-23T06:30:47.366Z,8.53
2022-11-23T06:33:15.090Z,8.49
2022-11-23T06:35:42.779Z,8.40
2022-11-23T06:38:10.453Z,8.47
2022-11-23T06:40:38.441Z,8.49
2022-11-23T06:43:08.204Z,8.47
2022-11-23T06:45:36.277Z,8.50
2022-11-23T06:48:04.019Z,8.53
2022-11-23T06:50:31.640Z,8.46
2022-11-23T06:52:59.503Z,8.49
2022-11-23T06:55:27.375Z,8.48
2022-11-23T06:57:55.211Z,8.50
2022-11-23T07:00:24.523Z,8.49
2022-11-23T07:02:53.330Z,8.48
2022-11-23T07:05:21.613Z,8.55
2022-11-23T07:07:49.841Z,8.58
2022-11-23T07:10:18.363Z,8.62
2022-11-23T07:12:46.563Z,8.71
2022-11-23T07:15:15.034Z,8.70
2022-11-23T07:17:45.197Z,8.72
2022-11-23T07:20:14.327Z,8.70
2022-11-23T07:22:42.100Z,8.73
2022-11-23T07:25:11.469Z,8.69
2022-11-23T07:27:39.087Z,8.62
2022-11-23T07:30:08.100Z,8.57
2022-11-23T07:32:35.801Z,8.53
2022-11-23T07:35:05.352Z,8.56
2022-11-23T07:37:33.085Z,8.48
2022-11-23T07:40:01.310Z,8.45
2022-11-23T07:42:36.877Z,8.42
2022-11-23T07:45:10.464Z,8.42
2022-11-23T07:47:38.216Z,8.43
2022-11-23T07:50:08.499Z,8.45
2022-11-23T07:52:37.553Z,8.52
2022-11-23T07:55:06.369Z,8.58
2022-11-23T07:57:34.074Z,8.61
2022-11-23T08:00:02.125Z,8.62
2022-11-23T08:02:29.890Z,8.65
2022-11-23T08:04:57.573Z,8.64
2022-11-23T08:07:27.800Z,8.68
2022-11-23T08:09:55.499Z,8.67
2022-11-23T08:12:23.187Z,8.65
2022-11-23T08:14:50.829Z,8.67
2022-11-23T08:17:18.522Z,8.64
2022-11-23T08:19:46.224Z,8.64
2022-11-23T08:22:15.856Z,8.75
2022-11-23T08:24:45.248Z,8.75
2022-11-23T08:27:12.917Z,8.71
2022-11-23T08:29:40.851Z,8.74
2022-11-23T08:32:08.480Z,8.76
2022-11-23T08:34:36.143Z,8.79
2022-11-23T08:37:03.890Z,8.75
2022-11-23T08:39:31.650Z,8.85
2022-11-23T08:42:00.800Z,8.85
2022-11-23T08:44:28.809Z,8.93
2022-11-23T08:46:56.521Z,8.92
2022-11-23T08:49:24.255Z,9.04
2022-11-23T08:51:51.966Z,9.49
2022-11-23T08:54:19.626Z,10.46
2022-11-23T08:56:47.478Z,11.94
2022-11-23T08:59:17.187Z,13.79
2022-11-23T09:01:45.256Z,15.33
2022-11-23T09:04:17.723Z,16.73
2022-11-23T09:06:48.142Z,17.71
2022-11-23T09:09:15.818Z,18.78
2022-11-23T09:11:43.472Z,20.25
2022-11-23T09:14:12.660Z,20.33
2022-11-23T09:16:41.706Z,20.24
2022-11-23T09:19:14.214Z,22.23
2022-11-23T09:21:43.019Z,24.63
2022-11-23T09:24:11.568Z,26.07
2022-11-23T09:26:39.562Z,26.76
2022-11-23T09:29:08.019Z,26.69
2022-11-23T09:31:36.296Z,26.15
2022-11-23T09:34:05.965Z,25.04
2022-11-23T09:36:33.889Z,23.67
2022-11-23T09:39:01.518Z,21.74
2022-11-23T09:41:52.316Z,19.25
2022-11-23T09:44:25.559Z,17.36
2022-11-23T09:47:04.403Z,15.87
2022-11-23T09:49:42.777Z,14.86
2022-11-23T09:52:17.812Z,14.10
2022-11-23T09:54:48.394Z,13.68
2022-11-23T09:57:20.716Z,13.42
2022-11-23T09:59:53.667Z,13.12
2022-11-23T10:02:23.730Z,13.26
2022-11-23T10:04:54.592Z,13.29
2022-11-23T10:07:40.806Z,13.38
2022-11-23T10:10:20.121Z,14.63
2022-11-23T10:12:55.358Z,16.25
2022-11-23T10:15:27.980Z,19.34
2022-11-23T10:18:06.101Z,21.95
2022-11-23T10:20:45.539Z,21.67
2022-11-23T10:23:19.366Z,19.50
2022-11-23T10:25:49.926Z,17.81
2022-11-23T10:28:20.400Z,19.07
2022-11-23T10:30:53.289Z,19.88
2022-11-23T10:33:27.583Z,19.65
2022-11-23T10:35:56.644Z,19.31
2022-11-23T10:38:28.442Z,19.70
2022-11-23T10:41:04.045Z,20.06
2022-11-23T10:43:38.042Z,20.76
2022-11-23T10:46:27.900Z,20.95
2022-11-23T10:48:56.342Z,20.61
2022-11-23T10:51:33.087Z,21.28
2022-11-23T10:54:05.414Z,21.36
2022-11-23T10:56:34.751Z,21.24
2022-11-23T10:59:02.525Z,20.73
2022-11-23T11:01:30.632Z,20.23
2022-11-23T11:04:04.063Z,19.65
2022-11-23T11:06:36.121Z,19.61
2022-11-23T11:09:08.472Z,20.00
2022-11-23T11:11:46.718Z,19.90
2022-11-23T11:14:17.671Z,19.80
2022-11-23T11:16:49.996Z,20.64
2022-11-23T11:19:28.337Z,22.06
2022-11-23T11:21:58.372Z,22.14
2022-11-23T11:24:33.311Z,21.49
2022-11-23T11:27:04.687Z,20.44
2022-11-23T11:29:39.160Z,19.16
2022-11-23T11:32:12.697Z,17.71
2022-11-23T11:34:46.007Z,16.53
2022-11-23T11:37:19.993Z,15.72
2022-11-23T11:39:52.654Z,15.22
2022-11-23T11:42:31.509Z,14.86
2022-11-23T11:45:02.299Z,14.77
2022-11-23T11:47:34.756Z,14.58
2022-11-23T11:50:12.054Z,14.45
2022-11-23T11:52:43.520Z,14.24
2022-11-23T11:55:16.333Z,14.27
2022-11-23T11:57:48.890Z,14.17
2022-11-23T12:00:19.164Z,13.99
2022-11-23T12:02:59.713Z,13.82
2022-11-23T12:05:37.041Z,13.71
2022-11-23T12:08:12.537Z,13.53
2022-11-23T12:10:48.514Z,13.32
2022-11-23T12:13:18.557Z,13.19
2022-11-23T12:15:50.571Z,13.06
2022-11-23T12:18:45.135Z,12.97
2022-11-23T12:21:27.832Z,12.80
2022-11-23T12:24:06.473Z,12.67
2022-11-23T12:26:44.999Z,12.62
2022-11-23T12:29:35.823Z,12.58
2022-11-23T12:32:15.118Z,12.41
2022-11-23T12:35:00.125Z,12.36
2022-11-23T12:37:44.347Z,12.30
2022-11-23T12:40:45.015Z,12.35
2022-11-23T12:43:15.290Z,12.46
2022-11-23T12:45:57.118Z,12.46
2022-11-23T12:48:38.829Z,12.40
2022-11-23T12:51:17.476Z,12.28
2022-11-23T12:53:53.900Z,12.27
2022-11-23T12:56:38.149Z,12.23
2022-11-23T12:59:09.265Z,12.21
2022-11-23T13:01:41.501Z,12.19
2022-11-23T13:04:42.681Z,12.25
2022-11-23T13:07:47.603Z,12.27
2022-11-23T13:10:25.834Z,12.23
2022-11-23T13:13:14.098Z,12.20
2022-11-23T13:16:01.559Z,12.17
2022-11-23T13:18:44.387Z,12.22
2022-11-23T13:21:23.960Z,12.22
2022-11-23T13:23:51.839Z,12.15
2022-11-23T13:26:21.641Z,12.13
2022-11-23T13:28:52.760Z,12.13
2022-11-23T13:31:26.441Z,12.09
2022-11-23T13:33:56.412Z,12.12
2022-11-23T13:37:11.008Z,12.11
2022-11-23T13:40:06.347Z,12.11
2022-11-23T13:42:37.100Z,12.09
2022-11-23T13:45:30.744Z,12.14
2022-11-23T13:48:07.442Z,12.11
2022-11-23T13:50:35.612Z,12.06
2022-11-23T13:53:04.281Z,12.01
2022-11-23T13:55:35.937Z,12.01
2022-11-23T13:58:37.247Z,12.01
2022-11-23T14:01:06.626Z,12.01
2022-11-23T14:03:55.888Z,11.96
2022-11-23T14:06:37.491Z,11.96
2022-11-23T14:09:14.844Z,11.99
2022-11-23T14:11:54.024Z,11.91
2022-11-23T14:14:27.229Z,11.88
2022-11-23T14:17:20.505Z,11.81
2022-11-23T14:20:09.286Z,11.84
2022-11-23T14:22:48.593Z,11.82
2022-11-23T14:25:39.664Z,11.77
2022-11-23T14:28:22.870Z,11.72
2022-11-23T14:31:04.673Z,11.76
2022-11-23T14:33:40.635Z,11.78
2022-11-23T14:36:21.118Z,11.70
2022-11-23T14:39:24.174Z,11.66
2022-11-23T14:41:56.260Z,11.62
2022-11-23T14:44:28.068Z,11.62
2022-11-23T14:47:02.738Z,11.59
2022-11-23T14:49:32.355Z,11.50
2022-11-23T14:52:01.858Z,11.52
2022-11-23T14:54:31.193Z,11.53
2022-11-23T14:57:01.471Z,11.53
2022-11-23T14:59:32.221Z,11.48
2022-11-23T15:02:02.101Z,11.40
2022-11-23T15:04:35.085Z,11.36
2022-11-23T15:07:08.231Z,11.31
2022-11-23T15:09:46.109Z,11.28
2022-11-23T15:12:23.683Z,11.28
2022-11-23T15:14:51.918Z,11.24
2022-11-23T15:17:21.713Z,11.23
2022-11-23T15:19:59.380Z,11.18
2022-11-23T15:22:28.481Z,11.19
2022-11-23T15:25:06.402Z,11.38
2022-11-23T15:27:34.134Z,11.25
2022-11-23T15:30:02.261Z,11.22
2022-11-23T15:32:33.766Z,11.18
2022-11-23T15:35:07.250Z,11.13
2022-11-23T15:37:42.118Z,11.17
2022-11-23T15:40:14.806Z,11.21
2022-11-23T15:42:43.823Z,11.16
2022-11-23T15:45:36.573Z,11.22
2022-11-23T15:48:07.414Z,11.19
2022-11-23T15:50:45.606Z,11.21
2022-11-23T15:53:13.953Z,11.20
2022-11-23T15:55:43.480Z,11.21
2022-11-23T15:58:17.509Z,11.25
2022-11-23T16:00:50.846Z,11.24
2022-11-23T16:03:29.909Z,11.21
2022-11-23T16:06:17.567Z,11.24
2022-11-23T16:08:45.567Z,11.27
2022-11-23T16:11:34.917Z,11.25
2022-11-23T16:14:17.524Z,11.25
2022-11-23T16:16:46.740Z,11.23
2022-11-23T16:19:24.527Z,11.23
2022-11-23T16:22:00.708Z,11.23
2022-11-23T16:24:31.841Z,11.25
2022-11-23T16:26:59.996Z,11.24
2022-11-23T16:29:32.055Z,11.28
2022-11-23T16:32:02.717Z,11.28
2022-11-23T16:34:30.694Z,11.31
2022-11-23T16:37:03.847Z,11.37
2022-11-23T16:39:31.568Z,11.37
2022-11-23T16:41:59.329Z,11.38
2022-11-23T16:44:41.554Z,11.41
2022-11-23T16:47:21.218Z,11.32
2022-11-23T16:49:49.377Z,11.34
2022-11-23T16:52:18.630Z,11.28
2022-11-23T16:54:46.339Z,11.26
2022-11-23T16:57:24.802Z,11.22
2022-11-23T16:59:52.527Z,11.06
2022-11-23T17:02:20.484Z,10.98
2022-11-23T17:04:48.238Z,10.86
2022-11-23T17:07:16.841Z,10.80
2022-11-23T17:09:45.945Z,10.70
2022-11-23T17:12:17.334Z,10.69
2022-11-23T17:14:47.921Z,10.67
2022-11-23T17:17:20.463Z,10.63
2022-11-23T17:19:49.614Z,10.70
2022-11-23T17:22:18.427Z,10.74
2022-11-23T17:24:48.160Z,10.73
2022-11-23T17:27:18.185Z,10.63
2022-11-23T17:29:47.205Z,10.61
2022-11-23T17:32:15.949Z,10.56
2022-11-23T17:34:43.668Z,10.47
2022-11-23T17:37:17.955Z,10.46
2022-11-23T17:39:47.605Z,10.36
2022-11-23T17:42:15.902Z,10.29
2022-11-23T17:44:43.832Z,10.26
2022-11-23T17:47:18.790Z,10.18
2022-11-23T17:49:46.557Z,10.15
2022-11-23T17:52:14.332Z,10.08
2022-11-23T17:54:42.046Z,10.07
2022-11-23T17:57:15.352Z,10.07
2022-11-23T17:59:46.012Z,10.08
2022-11-23T18:02:13.702Z,10.06
2022-11-23T18:04:41.513Z,10.11
2022-11-23T18:07:13.732Z,10.15
2022-11-23T18:09:41.681Z,10.22
2022-11-23T18:12:10.420Z,10.11
2022-11-23T18:14:39.551Z,10.15
2022-11-23T18:17:07.374Z,10.16
2022-11-23T18:19:35.482Z,10.25
2022-11-23T18:22:03.349Z,10.24
2022-11-23T18:24:31.072Z,10.20
2022-11-23T18:26:58.785Z,10.26
2022-11-23T18:29:26.483Z,10.12
2022-11-23T18:31:55.532Z,10.10
2022-11-23T18:34:23.234Z,10.23
2022-11-23T18:36:50.919Z,10.18
2022-11-23T18:39:18.643Z,10.19
2022-11-23T18:41:47.197Z,10.14
2022-11-23T18:44:14.882Z,10.10
2022-11-23T18:46:44.915Z,10.05
2022-11-23T18:49:14.108Z,10.08
2022-11-23T18:51:41.769Z,10.18
2022-11-23T18:54:09.457Z,10.18
2022-11-23T18:56:37.093Z,10.28
2022-11-23T18:59:04.950Z,10.21
2022-11-23T19:01:32.696Z,10.12
2022-11-23T19:04:01.244Z,10.12
2022-11-23T19:06:30.294Z,10.13
2022-11-23T19:08:57.992Z,10.21
2022-11-23T19:11:28.577Z,10.23
2022-11-23T19:13:58.198Z,10.19
2022-11-23T19:16:31.316Z,10.18
2022-11-23T19:19:01.063Z,10.15
2022-11-23T19:21:31.408Z,10.11
2022-11-23T19:24:00.376Z,10.13
2022-11-23T19:26:30.057Z,10.18
2022-11-23T19:28:58.199Z,10.29
2022-11-23T19:31:27.517Z,10.28
2022-11-23T19:33:58.397Z,10.21
2022-11-23T19:36:26.537Z,10.08
2022-11-23T19:38:58.103Z,9.99
2022-11-23T19:41:30.120Z,9.96
2022-11-23T19:43:59.733Z,9.92
2022-11-23T19:46:29.070Z,9.86
2022-11-23T19:48:58.108Z,9.82
2022-11-23T19:51:26.705Z,9.78
2022-11-23T19:53:57.647Z,9.80
2022-11-23T19:56:28.785Z,9.91
2022-11-23T19:58:58.569Z,9.99
2022-11-23T20:01:28.039Z,9.97
2022-11-23T20:04:04.001Z,9.94
2022-11-23T20:06:37.089Z,9.84
2022-11-23T20:09:07.766Z,9.88
2022-11-23T20:11:36.785Z,9.89
2022-11-23T20:14:04.695Z,9.85
2022-11-23T20:16:33.501Z,9.83
2022-11-23T20:19:04.673Z,9.83
2022-11-23T20:21:34.775Z,9.74
2022-11-23T20:24:05.476Z,9.66
2022-11-23T20:26:36.322Z,9.58
2022-11-23T20:29:06.470Z,9.54
2022-11-23T20:31:35.223Z,9.61
2022-11-23T20:34:07.532Z,9.65
2022-11-23T20:36:38.413Z,9.61
2022-11-23T20:39:08.701Z,9.74
2022-11-23T20:41:38.640Z,9.85
2022-11-23T20:44:08.215Z,9.79
2022-11-23T20:47:00.722Z,9.72
2022-11-23T20:49:23.492Z,9.63
2022-11-23T20:51:51.151Z,9.62
2022-11-23T20:54:19.023Z,9.67
2022-11-23T20:56:48.106Z,9.67
2022-11-23T20:59:15.823Z,9.65
2022-11-23T21:01:43.495Z,9.69
2022-11-23T21:04:11.319Z,9.71
2022-11-23T21:06:40.182Z,9.72
2022-11-23T21:09:08.974Z,9.80
2022-11-23T21:11:54.510Z,9.87
2022-11-23T21:14:27.653Z,9.90
2022-11-23T21:16:58.214Z,9.87
2022-11-23T21:19:27.336Z,9.85
2022-11-23T21:21:55.454Z,9.88
2022-11-23T21:24:23.202Z,9.89
2022-11-23T21:26:50.871Z,9.91
2022-11-23T21:29:19.617Z,9.93
2022-11-23T21:31:50.107Z,9.92
2022-11-23T21:34:20.040Z,9.93
2022-11-23T21:36:48.506Z,9.95
2022-11-23T21:39:17.024Z,9.96
2022-11-23T21:41:45.131Z,9.99
2022-11-23T21:44:13.402Z,10.01
2022-11-23T21:46:42.146Z,10.01
2022-11-23T21:49:11.612Z,10.02
2022-11-23T21:51:39.871Z,10.02
2022-11-23T21:54:10.213Z,10.02
2022-11-23T21:56:37.942Z,9.99
2022-11-23T21:59:06.062Z,9.99
2022-11-23T22:01:36.236Z,9.96
2022-11-23T22:04:08.577Z,9.93
2022-11-23T22:06:37.639Z,9.95
2022-11-23T22:09:07.246Z,10.01
2022-11-23T22:11:36.990Z,10.02
2022-11-23T22:14:07.228Z,10.00
2022-11-23T22:16:36.726Z,9.93
2022-11-23T22:19:05.779Z,9.87
2022-11-23T22:21:36.331Z,9.82
2022-11-23T22:24:06.630Z,9.81
2022-11-23T22:26:34.573Z,9.83
2022-11-23T22:29:06.158Z,9.80
2022-11-23T22:31:34.785Z,9.80
2022-11-23T22:34:03.474Z,9.84
2022-11-23T22:36:31.384Z,9.83
2022-11-23T22:39:02.684Z,9.82
2022-11-23T22:41:34.454Z,9.86
2022-11-23T22:44:02.061Z,9.74
2022-11-23T22:46:29.941Z,9.70
2022-11-23T22:48:59.302Z,9.68
2022-11-23T22:51:29.611Z,9.71
2022-11-23T22:53:58.411Z,9.68
2022-11-23T22:56:26.995Z,9.65
2022-11-23T22:58:56.068Z,9.70
2022-11-23T23:01:26.393Z,9.75
2022-11-23T23:03:55.373Z,9.85
2022-11-23T23:06:24.854Z,9.80
2022-11-23T23:08:55.962Z,9.77
2022-11-23T23:11:25.039Z,9.77
2022-11-23T23:13:52.984Z,9.76
2022-11-23T23:16:22.467Z,9.78
2022-11-23T23:18:50.543Z,9.80
2022-11-23T23:21:19.914Z,9.78
2022-11-23T23:23:49.344Z,9.80
2022-11-23T23:26:18.975Z,9.71
2022-11-23T23:28:47.003Z,9.71
2022-11-23T23:31:17.233Z,9.76
2022-11-23T23:33:46.777Z,9.79
2022-11-23T23:36:16.543Z,9.83
2022-11-23T23:38:44.449Z,9.77
2022-11-23T23:41:13.812Z,9.79
2022-11-23T23:43:42.189Z,9.80
2022-11-23T23:46:11.814Z,9.82
2022-11-23T23:48:40.969Z,9.84
2022-11-23T23:51:11.634Z,9.88
2022-11-23T23:53:39.839Z,9.89
2022-11-23T23:56:09.457Z,9.93
2022-11-23T23:58:37.305Z,9.96
